sensor_id;sensor_type;location;lat;lon;timestamp;P1;durP1;ratioP1;P2;durP2;ratioP2
41139;SDS011;26881;48.784;9.192;2023-02-18T00:03:10;0.75;;;0.75;;
41139;SDS011;26881;48.784;9.192;2023-02-18T00:08:32;0.70;;;0.70;;
41139;SDS011;26881;48.784;9.192;2023-02-18T00:13:55;2.75;;;1.05;;
41139;SDS011;26881;48.784;9.192;2023-02-18T00:19:18;1.70;;;1.00;;
41139;SDS011;26881;48.784;9.192;2023-02-18T00:24:42;1.02;;;0.80;;
41139;SDS011;26881;48.784;9.192;2023-02-18T00:30:04;1.30;;;0.75;;
41139;SDS011;26881;48.784;9.192;2023-02-18T00:35:26;0.70;;;0.70;;
41139;SDS011;26881;48.784;9.192;2023-02-18T00:40:48;1.23;;;0.80;;
41139;SDS011;26881;48.784;9.192;2023-02-18T00:46:10;1.00;;;0.80;;
41139;SDS011;26881;48.784;9.192;2023-02-18T00:51:32;0.60;;;0.55;;
41139;SDS011;26881;48.784;9.192;2023-02-18T00:56:54;0.50;;;0.50;;
41139;SDS011;26881;48.784;9.192;2023-02-18T01:02:16;0.73;;;0.70;;
41139;SDS011;26881;48.784;9.192;2023-02-18T01:07:38;0.60;;;0.60;;
41139;SDS011;26881;48.784;9.192;2023-02-18T01:13:00;0.70;;;0.70;;
41139;SDS011;26881;48.784;9.192;2023-02-18T01:18:25;1.10;;;0.60;;
41139;SDS011;26881;48.784;9.192;2023-02-18T01:23:47;0.60;;;0.60;;
41139;SDS011;26881;48.784;9.192;2023-02-18T01:29:10;0.70;;;0.70;;
41139;SDS011;26881;48.784;9.192;2023-02-18T01:34:32;1.05;;;0.80;;
41139;SDS011;26881;48.784;9.192;2023-02-18T01:39:54;1.55;;;0.80;;
41139;SDS011;26881;48.784;9.192;2023-02-18T01:50:59;0.93;;;0.82;;
41139;SDS011;26881;48.784;9.192;2023-02-18T01:56:47;1.00;;;0.90;;
41139;SDS011;26881;48.784;9.192;2023-02-18T02:02:16;1.23;;;0.95;;
41139;SDS011;26881;48.784;9.192;2023-02-18T02:07:40;1.67;;;1.27;;
41139;SDS011;26881;48.784;9.192;2023-02-18T02:13:14;1.50;;;1.15;;
41139;SDS011;26881;48.784;9.192;2023-02-18T02:42:17;1.75;;;1.00;;
41139;SDS011;26881;48.784;9.192;2023-02-18T02:47:54;2.58;;;1.73;;
41139;SDS011;26881;48.784;9.192;2023-02-18T02:53:22;1.00;;;0.90;;
41139;SDS011;26881;48.784;9.192;2023-02-18T02:58:58;1.30;;;1.10;;
41139;SDS011;26881;48.784;9.192;2023-02-18T03:04:27;0.80;;;0.77;;
41139;SDS011;26881;48.784;9.192;2023-02-18T03:10:14;1.02;;;1.02;;
41139;SDS011;26881;48.784;9.192;2023-02-18T03:16:02;1.05;;;0.80;;
41139;SDS011;26881;48.784;9.192;2023-02-18T03:21:44;1.85;;;1.08;;
41139;SDS011;26881;48.784;9.192;2023-02-18T03:27:13;2.33;;;1.10;;
41139;SDS011;26881;48.784;9.192;2023-02-18T03:32:38;1.08;;;1.00;;
41139;SDS011;26881;48.784;9.192;2023-02-18T03:38:11;0.98;;;0.98;;
41139;SDS011;26881;48.784;9.192;2023-02-18T03:43:39;0.80;;;0.80;;
41139;SDS011;26881;48.784;9.192;2023-02-18T03:49:01;0.82;;;0.82;;
41139;SDS011;26881;48.784;9.192;2023-02-18T03:54:23;0.95;;;0.95;;
41139;SDS011;26881;48.784;9.192;2023-02-18T03:59:45;0.85;;;0.80;;
41139;SDS011;26881;48.784;9.192;2023-02-18T04:05:07;0.88;;;0.88;;
41139;SDS011;26881;48.784;9.192;2023-02-18T04:10:29;0.85;;;0.85;;
41139;SDS011;26881;48.784;9.192;2023-02-18T04:15:51;1.98;;;0.90;;
41139;SDS011;26881;48.784;9.192;2023-02-18T04:21:13;1.20;;;1.10;;
41139;SDS011;26881;48.784;9.192;2023-02-18T04:26:35;0.90;;;0.90;;
41139;SDS011;26881;48.784;9.192;2023-02-18T04:31:56;1.02;;;0.93;;
41139;SDS011;26881;48.784;9.192;2023-02-18T04:37:18;1.63;;;1.15;;
41139;SDS011;26881;48.784;9.192;2023-02-18T04:42:40;1.13;;;1.05;;
41139;SDS011;26881;48.784;9.192;2023-02-18T04:48:02;1.00;;;0.90;;
41139;SDS011;26881;48.784;9.192;2023-02-18T04:53:24;0.93;;;0.90;;
41139;SDS011;26881;48.784;9.192;2023-02-18T04:58:45;2.80;;;1.13;;
41139;SDS011;26881;48.784;9.192;2023-02-18T05:04:07;2.03;;;1.10;;
41139;SDS011;26881;48.784;9.192;2023-02-18T05:09:29;2.88;;;0.90;;
41139;SDS011;26881;48.784;9.192;2023-02-18T05:14:51;1.20;;;1.02;;
41139;SDS011;26881;48.784;9.192;2023-02-18T05:20:13;1.98;;;1.23;;
41139;SDS011;26881;48.784;9.192;2023-02-18T05:25:35;1.20;;;1.10;;
41139;SDS011;26881;48.784;9.192;2023-02-18T05:30:56;1.08;;;0.95;;
41139;SDS011;26881;48.784;9.192;2023-02-18T05:36:19;1.20;;;1.10;;
41139;SDS011;26881;48.784;9.192;2023-02-18T05:41:40;1.05;;;1.02;;
41139;SDS011;26881;48.784;9.192;2023-02-18T05:47:03;2.90;;;1.27;;
41139;SDS011;26881;48.784;9.192;2023-02-18T05:52:32;1.17;;;0.93;;
41139;SDS011;26881;48.784;9.192;2023-02-18T05:57:53;1.50;;;1.17;;
41139;SDS011;26881;48.784;9.192;2023-02-18T06:03:15;1.00;;;0.95;;
41139;SDS011;26881;48.784;9.192;2023-02-18T06:08:37;1.50;;;1.05;;
41139;SDS011;26881;48.784;9.192;2023-02-18T06:13:59;2.55;;;1.00;;
41139;SDS011;26881;48.784;9.192;2023-02-18T06:19:21;1.52;;;1.05;;
41139;SDS011;26881;48.784;9.192;2023-02-18T06:24:42;1.00;;;0.90;;
41139;SDS011;26881;48.784;9.192;2023-02-18T06:30:04;0.88;;;0.82;;
41139;SDS011;26881;48.784;9.192;2023-02-18T06:35:27;1.33;;;1.00;;
41139;SDS011;26881;48.784;9.192;2023-02-18T06:40:49;4.60;;;1.30;;
41139;SDS011;26881;48.784;9.192;2023-02-18T06:46:11;4.03;;;1.20;;
41139;SDS011;26881;48.784;9.192;2023-02-18T06:51:32;6.32;;;1.35;;
41139;SDS011;26881;48.784;9.192;2023-02-18T06:56:54;3.65;;;1.20;;
41139;SDS011;26881;48.784;9.192;2023-02-18T07:02:16;1.95;;;1.10;;
41139;SDS011;26881;48.784;9.192;2023-02-18T07:07:37;1.83;;;1.10;;
41139;SDS011;26881;48.784;9.192;2023-02-18T07:12:59;1.67;;;1.45;;
41139;SDS011;26881;48.784;9.192;2023-02-18T07:18:21;1.98;;;1.50;;
41139;SDS011;26881;48.784;9.192;2023-02-18T07:23:43;3.10;;;1.70;;
41139;SDS011;26881;48.784;9.192;2023-02-18T07:29:04;1.50;;;1.35;;
41139;SDS011;26881;48.784;9.192;2023-02-18T07:34:26;1.90;;;1.45;;
41139;SDS011;26881;48.784;9.192;2023-02-18T07:39:48;2.25;;;1.40;;
41139;SDS011;26881;48.784;9.192;2023-02-18T07:45:11;1.77;;;1.50;;
41139;SDS011;26881;48.784;9.192;2023-02-18T07:50:33;1.45;;;1.30;;
41139;SDS011;26881;48.784;9.192;2023-02-18T07:55:57;1.52;;;1.40;;
41139;SDS011;26881;48.784;9.192;2023-02-18T08:01:20;3.97;;;1.60;;
41139;SDS011;26881;48.784;9.192;2023-02-18T08:06:43;3.80;;;1.40;;
41139;SDS011;26881;48.784;9.192;2023-02-18T08:12:07;1.83;;;1.67;;
41139;SDS011;26881;48.784;9.192;2023-02-18T08:17:29;1.40;;;1.30;;
41139;SDS011;26881;48.784;9.192;2023-02-18T08:22:51;2.17;;;1.95;;
41139;SDS011;26881;48.784;9.192;2023-02-18T08:28:13;4.20;;;1.70;;
41139;SDS011;26881;48.784;9.192;2023-02-18T08:33:34;1.80;;;1.60;;
41139;SDS011;26881;48.784;9.192;2023-02-18T08:38:56;2.90;;;1.73;;
41139;SDS011;26881;48.784;9.192;2023-02-18T08:44:18;2.10;;;1.40;;
41139;SDS011;26881;48.784;9.192;2023-02-18T08:49:40;3.10;;;1.48;;
41139;SDS011;26881;48.784;9.192;2023-02-18T08:55:03;1.50;;;1.40;;
41139;SDS011;26881;48.784;9.192;2023-02-18T09:00:26;1.77;;;1.27;;
41139;SDS011;26881;48.784;9.192;2023-02-18T09:05:48;1.95;;;1.50;;
41139;SDS011;26881;48.784;9.192;2023-02-18T09:11:10;4.63;;;1.20;;
41139;SDS011;26881;48.784;9.192;2023-02-18T09:16:32;2.47;;;1.27;;
41139;SDS011;26881;48.784;9.192;2023-02-18T09:21:54;7.72;;;1.17;;
41139;SDS011;26881;48.784;9.192;2023-02-18T09:27:20;2.22;;;1.23;;
41139;SDS011;26881;48.784;9.192;2023-02-18T09:32:42;2.30;;;1.08;;
41139;SDS011;26881;48.784;9.192;2023-02-18T09:38:04;2.78;;;1.20;;
41139;SDS011;26881;48.784;9.192;2023-02-18T09:43:28;2.25;;;1.52;;
41139;SDS011;26881;48.784;9.192;2023-02-18T09:48:53;2.92;;;1.15;;
41139;SDS011;26881;48.784;9.192;2023-02-18T09:54:16;1.50;;;1.20;;
41139;SDS011;26881;48.784;9.192;2023-02-18T09:59:40;7.35;;;1.20;;
41139;SDS011;26881;48.784;9.192;2023-02-18T10:05:03;1.17;;;1.08;;
41139;SDS011;26881;48.784;9.192;2023-02-18T10:16:03;2.45;;;1.60;;
41139;SDS011;26881;48.784;9.192;2023-02-18T10:21:27;1.85;;;1.17;;
41139;SDS011;26881;48.784;9.192;2023-02-18T10:26:51;2.15;;;1.15;;
41139;SDS011;26881;48.784;9.192;2023-02-18T10:37:56;2.75;;;1.13;;
41139;SDS011;26881;48.784;9.192;2023-02-18T10:55:14;2.80;;;1.40;;
41139;SDS011;26881;48.784;9.192;2023-02-18T11:00:39;2.85;;;1.10;;
41139;SDS011;26881;48.784;9.192;2023-02-18T11:06:01;0.88;;;0.82;;
41139;SDS011;26881;48.784;9.192;2023-02-18T11:11:23;1.20;;;0.95;;
41139;SDS011;26881;48.784;9.192;2023-02-18T11:16:50;1.33;;;0.95;;
41139;SDS011;26881;48.784;9.192;2023-02-18T11:27:45;1.85;;;0.98;;
41139;SDS011;26881;48.784;9.192;2023-02-18T11:39:20;2.22;;;0.95;;
41139;SDS011;26881;48.784;9.192;2023-02-18T11:44:49;1.48;;;0.88;;
41139;SDS011;26881;48.784;9.192;2023-02-18T11:50:14;4.22;;;1.00;;
41139;SDS011;26881;48.784;9.192;2023-02-18T11:55:42;1.48;;;1.02;;
41139;SDS011;26881;48.784;9.192;2023-02-18T12:01:19;1.60;;;0.70;;
41139;SDS011;26881;48.784;9.192;2023-02-18T12:12:16;1.17;;;0.98;;
41139;SDS011;26881;48.784;9.192;2023-02-18T12:18:00;4.07;;;1.00;;
41139;SDS011;26881;48.784;9.192;2023-02-18T12:23:47;1.38;;;1.10;;
41139;SDS011;26881;48.784;9.192;2023-02-18T12:29:33;1.67;;;1.38;;
41139;SDS011;26881;48.784;9.192;2023-02-18T12:41:03;3.40;;;1.30;;
41139;SDS011;26881;48.784;9.192;2023-02-18T12:58:26;6.90;;;2.13;;
41139;SDS011;26881;48.784;9.192;2023-02-18T13:16:14;3.72;;;2.13;;
41139;SDS011;26881;48.784;9.192;2023-02-18T13:21:40;5.18;;;1.95;;
41139;SDS011;26881;48.784;9.192;2023-02-18T13:38:56;5.10;;;1.85;;
41139;SDS011;26881;48.784;9.192;2023-02-18T13:49:43;4.00;;;1.50;;
41139;SDS011;26881;48.784;9.192;2023-02-18T13:55:05;2.30;;;1.75;;
41139;SDS011;26881;48.784;9.192;2023-02-18T14:00:33;2.00;;;1.80;;
41139;SDS011;26881;48.784;9.192;2023-02-18T14:05:57;2.63;;;1.65;;
41139;SDS011;26881;48.784;9.192;2023-02-18T14:11:22;4.18;;;1.60;;
41139;SDS011;26881;48.784;9.192;2023-02-18T14:22:45;3.22;;;1.40;;
41139;SDS011;26881;48.784;9.192;2023-02-18T14:28:34;2.58;;;1.40;;
41139;SDS011;26881;48.784;9.192;2023-02-18T14:50:55;3.90;;;1.40;;
41139;SDS011;26881;48.784;9.192;2023-02-18T14:56:20;2.10;;;1.67;;
41139;SDS011;26881;48.784;9.192;2023-02-18T15:01:45;4.53;;;1.60;;
41139;SDS011;26881;48.784;9.192;2023-02-18T15:07:07;2.28;;;1.55;;
41139;SDS011;26881;48.784;9.192;2023-02-18T15:12:30;2.90;;;1.48;;
41139;SDS011;26881;48.784;9.192;2023-02-18T15:17:52;1.35;;;1.25;;
41139;SDS011;26881;48.784;9.192;2023-02-18T15:23:15;2.55;;;1.33;;
41139;SDS011;26881;48.784;9.192;2023-02-18T15:28:40;2.05;;;1.30;;
41139;SDS011;26881;48.784;9.192;2023-02-18T15:39:44;1.65;;;1.40;;
41139;SDS011;26881;48.784;9.192;2023-02-18T15:45:23;3.90;;;1.60;;
41139;SDS011;26881;48.784;9.192;2023-02-18T15:50:51;1.73;;;1.48;;
41139;SDS011;26881;48.784;9.192;2023-02-18T15:56:28;2.25;;;1.48;;
41139;SDS011;26881;48.784;9.192;2023-02-18T16:01:53;3.92;;;1.77;;
41139;SDS011;26881;48.784;9.192;2023-02-18T16:07:49;1.63;;;1.50;;
41139;SDS011;26881;48.784;9.192;2023-02-18T16:13:13;3.38;;;1.77;;
41139;SDS011;26881;48.784;9.192;2023-02-18T16:18:37;1.90;;;1.20;;
41139;SDS011;26881;48.784;9.192;2023-02-18T16:24:02;2.17;;;1.73;;
41139;SDS011;26881;48.784;9.192;2023-02-18T16:29:42;3.03;;;1.63;;
41139;SDS011;26881;48.784;9.192;2023-02-18T16:35:04;1.67;;;1.25;;
41139;SDS011;26881;48.784;9.192;2023-02-18T16:45:51;3.95;;;2.38;;
41139;SDS011;26881;48.784;9.192;2023-02-18T16:51:21;2.08;;;1.70;;
41139;SDS011;26881;48.784;9.192;2023-02-18T16:56:51;1.60;;;1.50;;
41139;SDS011;26881;48.784;9.192;2023-02-18T17:02:14;2.70;;;1.83;;
41139;SDS011;26881;48.784;9.192;2023-02-18T17:07:40;1.95;;;1.40;;
41139;SDS011;26881;48.784;9.192;2023-02-18T17:13:02;2.85;;;2.00;;
41139;SDS011;26881;48.784;9.192;2023-02-18T17:18:24;4.05;;;1.80;;
41139;SDS011;26881;48.784;9.192;2023-02-18T17:23:47;3.47;;;1.73;;
41139;SDS011;26881;48.784;9.192;2023-02-18T17:29:10;1.98;;;1.80;;
41139;SDS011;26881;48.784;9.192;2023-02-18T17:34:32;2.88;;;1.55;;
41139;SDS011;26881;48.784;9.192;2023-02-18T17:39:56;2.85;;;1.88;;
41139;SDS011;26881;48.784;9.192;2023-02-18T17:45:27;2.58;;;1.80;;
41139;SDS011;26881;48.784;9.192;2023-02-18T17:50:54;2.00;;;1.90;;
41139;SDS011;26881;48.784;9.192;2023-02-18T17:56:16;2.80;;;1.85;;
41139;SDS011;26881;48.784;9.192;2023-02-18T18:01:38;2.55;;;1.90;;
41139;SDS011;26881;48.784;9.192;2023-02-18T18:07:00;3.42;;;2.22;;
41139;SDS011;26881;48.784;9.192;2023-02-18T18:12:22;2.90;;;1.77;;
41139;SDS011;26881;48.784;9.192;2023-02-18T18:17:44;2.15;;;1.95;;
41139;SDS011;26881;48.784;9.192;2023-02-18T18:23:06;4.35;;;2.10;;
41139;SDS011;26881;48.784;9.192;2023-02-18T18:28:28;2.47;;;1.75;;
41139;SDS011;26881;48.784;9.192;2023-02-18T18:33:53;2.30;;;2.10;;
41139;SDS011;26881;48.784;9.192;2023-02-18T18:39:17;3.08;;;2.00;;
41139;SDS011;26881;48.784;9.192;2023-02-18T18:44:44;3.40;;;1.70;;
41139;SDS011;26881;48.784;9.192;2023-02-18T18:50:05;2.88;;;1.80;;
41139;SDS011;26881;48.784;9.192;2023-02-18T18:55:29;2.60;;;1.58;;
41139;SDS011;26881;48.784;9.192;2023-02-18T19:00:53;3.58;;;2.22;;
41139;SDS011;26881;48.784;9.192;2023-02-18T19:06:17;1.92;;;1.52;;
41139;SDS011;26881;48.784;9.192;2023-02-18T19:11:39;1.77;;;1.67;;
41139;SDS011;26881;48.784;9.192;2023-02-18T19:17:01;1.83;;;1.73;;
41139;SDS011;26881;48.784;9.192;2023-02-18T19:22:24;2.13;;;1.95;;
41139;SDS011;26881;48.784;9.192;2023-02-18T19:27:46;2.15;;;1.63;;
41139;SDS011;26881;48.784;9.192;2023-02-18T19:33:10;4.93;;;1.95;;
41139;SDS011;26881;48.784;9.192;2023-02-18T19:38:34;2.80;;;1.35;;
41139;SDS011;26881;48.784;9.192;2023-02-18T19:43:57;1.98;;;1.63;;
41139;SDS011;26881;48.784;9.192;2023-02-18T19:49:20;2.00;;;1.60;;
41139;SDS011;26881;48.784;9.192;2023-02-18T19:54:46;1.95;;;1.50;;
41139;SDS011;26881;48.784;9.192;2023-02-18T20:00:10;2.03;;;1.48;;
41139;SDS011;26881;48.784;9.192;2023-02-18T20:05:35;2.30;;;1.80;;
41139;SDS011;26881;48.784;9.192;2023-02-18T20:10:58;2.55;;;1.92;;
41139;SDS011;26881;48.784;9.192;2023-02-18T20:16:20;4.65;;;1.65;;
41139;SDS011;26881;48.784;9.192;2023-02-18T20:21:42;3.17;;;1.75;;
41139;SDS011;26881;48.784;9.192;2023-02-18T20:27:06;1.80;;;1.70;;
41139;SDS011;26881;48.784;9.192;2023-02-18T20:32:29;1.90;;;1.40;;
41139;SDS011;26881;48.784;9.192;2023-02-18T20:37:51;2.28;;;1.88;;
41139;SDS011;26881;48.784;9.192;2023-02-18T20:43:13;2.08;;;1.98;;
41139;SDS011;26881;48.784;9.192;2023-02-18T20:48:36;2.65;;;2.08;;
41139;SDS011;26881;48.784;9.192;2023-02-18T20:53:58;3.38;;;2.00;;
41139;SDS011;26881;48.784;9.192;2023-02-18T20:59:20;2.00;;;1.70;;
41139;SDS011;26881;48.784;9.192;2023-02-18T21:04:42;3.85;;;1.67;;
41139;SDS011;26881;48.784;9.192;2023-02-18T21:10:05;3.00;;;1.75;;
41139;SDS011;26881;48.784;9.192;2023-02-18T21:15:27;2.65;;;1.70;;
41139;SDS011;26881;48.784;9.192;2023-02-18T21:20:49;1.63;;;1.40;;
41139;SDS011;26881;48.784;9.192;2023-02-18T21:26:12;2.50;;;1.35;;
41139;SDS011;26881;48.784;9.192;2023-02-18T21:31:37;2.35;;;1.50;;
41139;SDS011;26881;48.784;9.192;2023-02-18T21:37:01;1.58;;;1.30;;
41139;SDS011;26881;48.784;9.192;2023-02-18T21:42:23;1.90;;;1.65;;
41139;SDS011;26881;48.784;9.192;2023-02-18T21:47:45;2.75;;;1.77;;
41139;SDS011;26881;48.784;9.192;2023-02-18T21:53:07;5.07;;;1.60;;
41139;SDS011;26881;48.784;9.192;2023-02-18T21:58:29;2.08;;;1.50;;
41139;SDS011;26881;48.784;9.192;2023-02-18T22:03:52;1.30;;;1.25;;
41139;SDS011;26881;48.784;9.192;2023-02-18T22:09:15;1.65;;;1.40;;
41139;SDS011;26881;48.784;9.192;2023-02-18T22:14:37;2.65;;;1.50;;
41139;SDS011;26881;48.784;9.192;2023-02-18T22:20:00;1.75;;;1.50;;
41139;SDS011;26881;48.784;9.192;2023-02-18T22:25:22;2.13;;;1.52;;
41139;SDS011;26881;48.784;9.192;2023-02-18T22:30:43;2.40;;;1.90;;
41139;SDS011;26881;48.784;9.192;2023-02-18T22:36:05;2.10;;;1.80;;
41139;SDS011;26881;48.784;9.192;2023-02-18T22:41:28;3.97;;;2.10;;
41139;SDS011;26881;48.784;9.192;2023-02-18T22:46:55;2.30;;;2.10;;
41139;SDS011;26881;48.784;9.192;2023-02-18T22:52:17;2.22;;;2.03;;
41139;SDS011;26881;48.784;9.192;2023-02-18T22:57:39;3.88;;;2.40;;
41139;SDS011;26881;48.784;9.192;2023-02-18T23:03:01;2.60;;;2.40;;
41139;SDS011;26881;48.784;9.192;2023-02-18T23:08:23;4.05;;;2.65;;
41139;SDS011;26881;48.784;9.192;2023-02-18T23:13:45;2.95;;;2.58;;
41139;SDS011;26881;48.784;9.192;2023-02-18T23:19:30;2.42;;;2.22;;
41139;SDS011;26881;48.784;9.192;2023-02-18T23:24:53;3.53;;;2.45;;
41139;SDS011;26881;48.784;9.192;2023-02-18T23:30:15;2.75;;;2.45;;
41139;SDS011;26881;48.784;9.192;2023-02-18T23:35:36;2.67;;;2.30;;
41139;SDS011;26881;48.784;9.192;2023-02-18T23:40:58;3.28;;;2.10;;
41139;SDS011;26881;48.784;9.192;2023-02-18T23:46:21;3.20;;;2.70;;
41139;SDS011;26881;48.784;9.192;2023-02-18T23:51:44;3.58;;;2.45;;
41139;SDS011;26881;48.784;9.192;2023-02-18T23:57:06;2.67;;;2.47;;
